CLX705 HKJK-ELLX
Flight info
| Callsign | CLX705 |
|---|---|
| Flight time | N/A |
| Altitude | 32000 |
| Route | NAKA4B NAKAT UL433 NN UW325 SIPKI DCT BUN UG862 KITRA/N0513F340 UG862 DIR UB730 DJA UM2 BARKA/N0500F360 UM2 CIRTA DCT BUKID DCT GARPU DCT PIGOS DCT BARSO DCT IRMAR DCT KINES DCT VANAS DCT MOBLO DCT UBIMA/N0473F300 DCT GILIR DCT PENDU DCT IXILU DCT EPL G21 GIVOR |
| Aircraft | B744/H-SDE2E3FGHIJ4J5M1RWXYZ/LB1B2D1 |
Departure
| Time | 2026-04-29 18:34 |
|---|---|
| Airport | Jomo Kenyatta International Airport (HKJK) |
Arrival
| Time | N/A |
|---|---|
| Airport | Luxembourg-Findel International Airport (ELLX) |
| Time | Latitude | Longitude | Altitude | Speed | Heading |
|---|---|---|---|---|---|
| 2026-04-29 17:07 | -1.33271 | 36.91703 | 5341 ft | 0 kts | 144° |
| 2026-04-29 18:23 | -1.33265 | 36.91699 | 5341 ft | 2 kts | 144° |
| 2026-04-29 18:23 | -1.33252 | 36.91689 | 5341 ft | 2 kts | 144° |
| 2026-04-29 18:24 | -1.33239 | 36.91680 | 5341 ft | 2 kts | 144° |
| 2026-04-29 18:24 | -1.33226 | 36.91670 | 5341 ft | 2 kts | 142° |
| 2026-04-29 18:24 | -1.33215 | 36.91659 | 5341 ft | 2 kts | 119° |
| 2026-04-29 18:24 | -1.33210 | 36.91643 | 5341 ft | 2 kts | 92° |
| 2026-04-29 18:25 | -1.33213 | 36.91628 | 5341 ft | 1 kts | 66° |
| 2026-04-29 18:25 | -1.33214 | 36.91625 | 5341 ft | 0 kts | 64° |
| 2026-04-29 18:30 | -1.33209 | 36.91634 | 5341 ft | 4 kts | 52° |
| 2026-04-29 18:31 | -1.33161 | 36.91659 | 5341 ft | 11 kts | 33° |
| 2026-04-29 18:31 | -1.33111 | 36.91713 | 5341 ft | 10 kts | 53° |
| 2026-04-29 18:31 | -1.33069 | 36.91770 | 5341 ft | 10 kts | 53° |
| 2026-04-29 18:31 | -1.33022 | 36.91817 | 5341 ft | 10 kts | 16° |
| 2026-04-29 18:32 | -1.32963 | 36.91796 | 5341 ft | 9 kts | 326° |
| 2026-04-29 18:32 | -1.32863 | 36.91726 | 5341 ft | 8 kts | 324° |
| 2026-04-29 18:32 | -1.32818 | 36.91692 | 5341 ft | 8 kts | 323° |
| 2026-04-29 18:33 | -1.32776 | 36.91661 | 5341 ft | 5 kts | 324° |
| 2026-04-29 18:33 | -1.32745 | 36.91657 | 5341 ft | 5 kts | 36° |
| 2026-04-29 18:33 | -1.32716 | 36.91693 | 5341 ft | 13 kts | 54° |
| 2026-04-29 18:33 | -1.32582 | 36.91877 | 5341 ft | 61 kts | 54° |
| 2026-04-29 18:34 | -1.32206 | 36.92394 | 5341 ft | 123 kts | 54° |
| 2026-04-29 18:34 | -1.31809 | 36.92939 | 5341 ft | 164 kts | 54° |
| 2026-04-29 18:34 | -1.30733 | 36.94420 | 5442 ft | 218 kts | 54° |
| 2026-04-29 18:34 | -1.29840 | 36.95645 | 6009 ft | 219 kts | 54° |
| 2026-04-29 18:35 | -1.28928 | 36.96877 | 6592 ft | 224 kts | 53° |
| 2026-04-29 18:35 | -1.27949 | 36.98172 | 6858 ft | 246 kts | 53° |
| 2026-04-29 18:35 | -1.26860 | 36.99602 | 7005 ft | 269 kts | 53° |
| 2026-04-29 18:35 | -1.25695 | 37.01125 | 7181 ft | 282 kts | 53° |
| 2026-04-29 18:36 | -1.24470 | 37.02700 | 7463 ft | 292 kts | 53° |
| 2026-04-29 18:36 | -1.23210 | 37.04302 | 7938 ft | 294 kts | 53° |
| 2026-04-29 18:36 | -1.21953 | 37.05904 | 8470 ft | 293 kts | 53° |
| 2026-04-29 18:36 | -1.20700 | 37.07500 | 8948 ft | 292 kts | 53° |
| 2026-04-29 18:37 | -1.19444 | 37.09094 | 9390 ft | 293 kts | 53° |
| 2026-04-29 18:37 | -1.18186 | 37.10697 | 9816 ft | 294 kts | 53° |
| 2026-04-29 18:37 | -1.16931 | 37.12306 | 10225 ft | 295 kts | 53° |
| 2026-04-29 18:37 | -1.15440 | 37.13696 | 10633 ft | 296 kts | 32° |
| 2026-04-29 18:38 | -1.13475 | 37.14355 | 11034 ft | 297 kts | 7° |
| 2026-04-29 18:38 | -1.11432 | 37.14136 | 11433 ft | 298 kts | 343° |
| 2026-04-29 18:38 | -1.09651 | 37.13097 | 11786 ft | 302 kts | 319° |
| 2026-04-29 18:38 | -1.08408 | 37.11397 | 12042 ft | 309 kts | 297° |
| 2026-04-29 18:39 | -1.07721 | 37.09349 | 12290 ft | 316 kts | 283° |
| 2026-04-29 18:39 | -1.07366 | 37.07168 | 12548 ft | 322 kts | 280° |
| 2026-04-29 18:39 | -1.07036 | 37.04927 | 12808 ft | 331 kts | 279° |
| 2026-04-29 18:39 | -1.06714 | 37.02613 | 13064 ft | 342 kts | 278° |
| 2026-04-29 18:40 | -1.06383 | 37.00220 | 13321 ft | 354 kts | 278° |
| 2026-04-29 18:40 | -1.06038 | 36.97739 | 13583 ft | 368 kts | 278° |
| 2026-04-29 18:40 | -1.05680 | 36.95162 | 13848 ft | 382 kts | 278° |
| 2026-04-29 18:40 | -1.05310 | 36.92493 | 14104 ft | 396 kts | 278° |
| 2026-04-29 18:41 | -1.04114 | 36.83897 | 14955 ft | 432 kts | 278° |
| 2026-04-29 18:41 | -1.03699 | 36.80909 | 15444 ft | 437 kts | 278° |
| 2026-04-29 18:42 | -1.03279 | 36.77892 | 15976 ft | 441 kts | 278° |
| 2026-04-29 18:42 | -1.02856 | 36.74857 | 16548 ft | 443 kts | 278° |
| 2026-04-29 18:42 | -1.02432 | 36.71805 | 17078 ft | 446 kts | 278° |
| 2026-04-29 18:42 | -1.02004 | 36.68730 | 17578 ft | 450 kts | 278° |
| 2026-04-29 18:43 | -1.01572 | 36.65628 | 18079 ft | 453 kts | 278° |
| 2026-04-29 18:43 | -1.01137 | 36.62504 | 18547 ft | 456 kts | 278° |
| 2026-04-29 18:43 | -1.00698 | 36.59356 | 18997 ft | 460 kts | 278° |
| 2026-04-29 18:43 | -1.00257 | 36.56185 | 19447 ft | 463 kts | 278° |
| 2026-04-29 18:44 | -0.99812 | 36.52994 | 19897 ft | 466 kts | 277° |
| 2026-04-29 18:44 | -0.99359 | 36.49739 | 20330 ft | 469 kts | 277° |
| 2026-04-29 18:44 | -0.98908 | 36.46499 | 20731 ft | 473 kts | 277° |
| 2026-04-29 18:44 | -0.98454 | 36.43245 | 21131 ft | 476 kts | 277° |
| 2026-04-29 18:45 | -0.97997 | 36.39962 | 21531 ft | 479 kts | 277° |
| 2026-04-29 18:45 | -0.97538 | 36.36664 | 21932 ft | 481 kts | 277° |
| 2026-04-29 18:45 | -0.97076 | 36.33347 | 22331 ft | 484 kts | 277° |
| 2026-04-29 18:45 | -0.96611 | 36.30014 | 22682 ft | 487 kts | 277° |
| 2026-04-29 18:46 | -0.96144 | 36.26659 | 23033 ft | 490 kts | 277° |
| 2026-04-29 18:46 | -0.95673 | 36.23280 | 23383 ft | 493 kts | 277° |
| 2026-04-29 18:46 | -0.95200 | 36.19892 | 23733 ft | 495 kts | 277° |
| 2026-04-29 18:46 | -0.94724 | 36.16477 | 24084 ft | 498 kts | 277° |
| 2026-04-29 18:47 | -0.94248 | 36.13055 | 24434 ft | 500 kts | 277° |
| 2026-04-29 18:47 | -0.93768 | 36.09612 | 24767 ft | 502 kts | 277° |
| 2026-04-29 18:47 | -0.93279 | 36.06104 | 25097 ft | 505 kts | 277° |
| 2026-04-29 18:47 | -0.92794 | 36.02629 | 25423 ft | 507 kts | 277° |
| 2026-04-29 18:48 | -0.92307 | 35.99136 | 25748 ft | 509 kts | 277° |
| 2026-04-29 18:48 | -0.91818 | 35.95631 | 26048 ft | 511 kts | 277° |
| 2026-04-29 18:48 | -0.91328 | 35.92112 | 26348 ft | 513 kts | 277° |
| 2026-04-29 18:48 | -0.90835 | 35.88576 | 26619 ft | 516 kts | 277° |
| 2026-04-29 18:49 | -0.90339 | 35.85023 | 26870 ft | 519 kts | 277° |
| 2026-04-29 18:49 | -0.89841 | 35.81453 | 27121 ft | 521 kts | 277° |
| 2026-04-29 18:49 | -0.89341 | 35.77867 | 27371 ft | 523 kts | 277° |
| 2026-04-29 18:49 | -0.88839 | 35.74272 | 27685 ft | 523 kts | 277° |
| 2026-04-29 18:50 | -0.88339 | 35.70684 | 28059 ft | 522 kts | 277° |
| 2026-04-29 18:50 | -0.87837 | 35.67092 | 28409 ft | 522 kts | 277° |
| 2026-04-29 18:50 | -0.87337 | 35.63509 | 28759 ft | 522 kts | 277° |
| 2026-04-29 18:50 | -0.86837 | 35.59927 | 29109 ft | 521 kts | 277° |
| 2026-04-29 18:51 | -0.86331 | 35.56302 | 29488 ft | 520 kts | 277° |
| 2026-04-29 18:51 | -0.85833 | 35.52733 | 29857 ft | 519 kts | 277° |
| 2026-04-29 18:51 | -0.85335 | 35.49170 | 30205 ft | 519 kts | 277° |
| 2026-04-29 18:51 | -0.84837 | 35.45606 | 30569 ft | 518 kts | 277° |
| 2026-04-29 18:52 | -0.84340 | 35.42046 | 30927 ft | 518 kts | 277° |
| 2026-04-29 18:52 | -0.83835 | 35.38490 | 31255 ft | 518 kts | 278° |
| 2026-04-29 18:52 | -0.83108 | 35.34978 | 31580 ft | 518 kts | 283° |
| 2026-04-29 18:52 | -0.82170 | 35.31511 | 31905 ft | 518 kts | 285° |
| 2026-04-29 18:53 | -0.81119 | 35.28070 | 32087 ft | 521 kts | 287° |
| 2026-04-29 18:53 | -0.80036 | 35.24606 | 32143 ft | 526 kts | 287° |
| 2026-04-29 18:53 | -0.77897 | 35.17572 | 32194 ft | 532 kts | 286° |
| 2026-04-29 18:54 | -0.75492 | 35.10545 | 32190 ft | 531 kts | 290° |
| 2026-04-29 18:54 | -0.72938 | 35.03631 | 32186 ft | 531 kts | 289° |
| 2026-04-29 18:55 | -0.70439 | 34.96699 | 32182 ft | 531 kts | 289° |
| 2026-04-29 18:55 | -0.67950 | 34.89755 | 32178 ft | 532 kts | 289° |
| 2026-04-29 18:56 | -0.65460 | 34.82801 | 32174 ft | 533 kts | 289° |
| 2026-04-29 18:56 | -0.62970 | 34.75847 | 32170 ft | 533 kts | 289° |
| 2026-04-29 18:57 | -0.60462 | 34.68844 | 32145 ft | 533 kts | 289° |
| 2026-04-29 18:57 | -0.57972 | 34.61891 | 32143 ft | 533 kts | 289° |
| 2026-04-29 18:58 | -0.55727 | 34.54855 | 32142 ft | 533 kts | 285° |
| 2026-04-29 18:58 | -0.53833 | 34.47709 | 32142 ft | 533 kts | 285° |
| 2026-04-29 18:59 | -0.51905 | 34.40578 | 32140 ft | 533 kts | 285° |
| 2026-04-29 18:59 | -0.49954 | 34.33443 | 32141 ft | 534 kts | 285° |
| 2026-04-29 19:00 | -0.47985 | 34.26255 | 32140 ft | 534 kts | 285° |
| 2026-04-29 19:00 | -0.46027 | 34.19112 | 32139 ft | 534 kts | 285° |
| 2026-04-29 19:01 | -0.44069 | 34.11973 | 32139 ft | 534 kts | 285° |
| 2026-04-29 19:01 | -0.42112 | 34.04836 | 32139 ft | 534 kts | 285° |
| 2026-04-29 19:02 | -0.40484 | 33.98901 | 32137 ft | 534 kts | 285° |
| 2026-04-29 19:02 | -0.37881 | 33.90647 | 32138 ft | 535 kts | 289° |
| 2026-04-29 19:03 | -0.35481 | 33.83626 | 32138 ft | 535 kts | 289° |
| 2026-04-29 19:03 | -0.33111 | 33.76546 | 32135 ft | 535 kts | 288° |
| 2026-04-29 19:04 | -0.30765 | 33.69508 | 32123 ft | 534 kts | 288° |
| 2026-04-29 19:04 | -0.28424 | 33.62484 | 32122 ft | 533 kts | 288° |
| 2026-04-29 19:05 | -0.26086 | 33.55465 | 32121 ft | 533 kts | 288° |
| 2026-04-29 19:05 | -0.23745 | 33.48439 | 32121 ft | 534 kts | 288° |
| 2026-04-29 19:06 | -0.21511 | 33.41388 | 32121 ft | 534 kts | 287° |
| 2026-04-29 19:07 | -0.18218 | 33.30729 | 32122 ft | 534 kts | 287° |
| 2026-04-29 19:07 | -0.16024 | 33.23660 | 32123 ft | 534 kts | 287° |
| 2026-04-29 19:08 | -0.13835 | 33.16613 | 32124 ft | 534 kts | 287° |
| 2026-04-29 19:08 | -0.11625 | 33.09499 | 32126 ft | 534 kts | 287° |
| 2026-04-29 19:09 | -0.09428 | 33.02431 | 32125 ft | 533 kts | 287° |
| 2026-04-29 19:09 | -0.07235 | 32.95374 | 32120 ft | 532 kts | 287° |
| 2026-04-29 19:10 | -0.05043 | 32.88320 | 32125 ft | 533 kts | 287° |
| 2026-04-29 19:10 | -0.02850 | 32.81263 | 32129 ft | 533 kts | 287° |
| 2026-04-29 19:11 | -0.00658 | 32.74210 | 32133 ft | 533 kts | 287° |
| 2026-04-29 19:11 | 0.01534 | 32.67155 | 32136 ft | 532 kts | 287° |
| 2026-04-29 19:12 | 0.03736 | 32.60070 | 32139 ft | 531 kts | 287° |
| 2026-04-29 19:12 | 0.05923 | 32.53031 | 32141 ft | 531 kts | 287° |
| 2026-04-29 19:13 | 0.08300 | 32.46057 | 32142 ft | 531 kts | 295° |
| 2026-04-29 19:13 | 0.11981 | 32.39680 | 32143 ft | 532 kts | 304° |
| 2026-04-29 19:14 | 0.16209 | 32.33637 | 32139 ft | 531 kts | 305° |
| 2026-04-29 19:14 | 0.20403 | 32.27572 | 32137 ft | 531 kts | 304° |
| 2026-04-29 19:15 | 0.24587 | 32.21448 | 32134 ft | 531 kts | 304° |
| 2026-04-29 19:15 | 0.28744 | 32.15356 | 32131 ft | 531 kts | 304° |
| 2026-04-29 19:16 | 0.32894 | 32.09270 | 32128 ft | 531 kts | 304° |
| 2026-04-29 19:16 | 0.37047 | 32.03175 | 32124 ft | 531 kts | 304° |
| 2026-04-29 19:17 | 0.41190 | 31.97077 | 32120 ft | 531 kts | 304° |
| 2026-04-29 19:17 | 0.45333 | 31.90979 | 32116 ft | 531 kts | 304° |
| 2026-04-29 19:18 | 0.49501 | 31.84841 | 32112 ft | 531 kts | 304° |
| 2026-04-29 19:18 | 0.53647 | 31.78737 | 32118 ft | 531 kts | 304° |
| 2026-04-29 19:19 | 0.57787 | 31.72640 | 32118 ft | 531 kts | 304° |
| 2026-04-29 19:19 | 0.61934 | 31.66533 | 32115 ft | 531 kts | 304° |
| 2026-04-29 19:20 | 0.66073 | 31.60437 | 32112 ft | 532 kts | 304° |
| 2026-04-29 19:20 | 0.70219 | 31.54334 | 32108 ft | 532 kts | 304° |
| 2026-04-29 19:21 | 0.74383 | 31.48247 | 32104 ft | 531 kts | 304° |
| 2026-04-29 19:21 | 0.78563 | 31.42128 | 32101 ft | 530 kts | 304° |
| 2026-04-29 19:22 | 0.82715 | 31.36048 | 32097 ft | 531 kts | 304° |
| 2026-04-29 19:22 | 0.86870 | 31.29963 | 32093 ft | 531 kts | 304° |
| 2026-04-29 19:23 | 0.91022 | 31.23882 | 32090 ft | 531 kts | 304° |
| 2026-04-29 19:23 | 0.95182 | 31.17788 | 32087 ft | 532 kts | 304° |
| 2026-04-29 19:24 | 0.99342 | 31.11694 | 32084 ft | 532 kts | 304° |
| 2026-04-29 19:24 | 1.03506 | 31.05594 | 32081 ft | 532 kts | 304° |
| 2026-04-29 19:25 | 1.06992 | 31.00487 | 32079 ft | 532 kts | 304° |
| 2026-04-29 19:25 | 1.11153 | 30.94391 | 32076 ft | 532 kts | 304° |
| 2026-04-29 19:26 | 1.15316 | 30.88293 | 32094 ft | 532 kts | 304° |
| 2026-04-29 19:26 | 1.19475 | 30.82198 | 32095 ft | 532 kts | 304° |
| 2026-04-29 19:27 | 1.23664 | 30.76057 | 32092 ft | 532 kts | 304° |
| 2026-04-29 19:27 | 1.27825 | 30.69959 | 32089 ft | 532 kts | 304° |
| 2026-04-29 19:28 | 1.32015 | 30.63879 | 32087 ft | 532 kts | 305° |
| 2026-04-29 19:28 | 1.36258 | 30.57838 | 32083 ft | 532 kts | 305° |
| 2026-04-29 19:29 | 1.40498 | 30.51782 | 32081 ft | 533 kts | 305° |
| 2026-04-29 19:29 | 1.44739 | 30.45720 | 32079 ft | 533 kts | 305° |
| 2026-04-29 19:30 | 1.49010 | 30.39613 | 32076 ft | 533 kts | 305° |
| 2026-04-29 19:30 | 1.53249 | 30.33549 | 32074 ft | 533 kts | 305° |
| 2026-04-29 19:31 | 1.57488 | 30.27486 | 32072 ft | 533 kts | 305° |
| 2026-04-29 19:31 | 1.62028 | 30.21649 | 32071 ft | 533 kts | 311° |
| 2026-04-29 19:32 | 1.66971 | 30.16126 | 32069 ft | 534 kts | 312° |
| 2026-04-29 19:32 | 1.71885 | 30.10581 | 32065 ft | 534 kts | 312° |
| 2026-04-29 19:33 | 1.76780 | 30.05019 | 32036 ft | 534 kts | 311° |
| 2026-04-29 19:33 | 1.81700 | 29.99415 | 32034 ft | 534 kts | 311° |
| 2026-04-29 19:34 | 1.86588 | 29.93846 | 32032 ft | 534 kts | 311° |
| 2026-04-29 19:34 | 1.91477 | 29.88277 | 32031 ft | 534 kts | 311° |
| 2026-04-29 19:35 | 1.96387 | 29.82722 | 32030 ft | 534 kts | 313° |
| 2026-04-29 19:35 | 2.01354 | 29.77224 | 32029 ft | 534 kts | 313° |
| 2026-04-29 19:36 | 2.06315 | 29.71717 | 32028 ft | 534 kts | 313° |
| 2026-04-29 19:36 | 2.11307 | 29.66181 | 32027 ft | 533 kts | 313° |
| 2026-04-29 19:37 | 2.16265 | 29.60679 | 32026 ft | 533 kts | 313° |
| 2026-04-29 19:37 | 2.21225 | 29.55173 | 32026 ft | 533 kts | 313° |
| 2026-04-29 19:38 | 2.26176 | 29.49679 | 32024 ft | 532 kts | 313° |
| 2026-04-29 19:38 | 2.31132 | 29.44203 | 32024 ft | 531 kts | 313° |
| 2026-04-29 19:39 | 2.36079 | 29.38730 | 32023 ft | 531 kts | 313° |
| 2026-04-29 19:39 | 2.41022 | 29.33259 | 32022 ft | 531 kts | 313° |
| 2026-04-29 19:40 | 2.45998 | 29.27750 | 32021 ft | 531 kts | 313° |
| 2026-04-29 19:40 | 2.50936 | 29.22286 | 32020 ft | 531 kts | 313° |
| 2026-04-29 19:41 | 2.55874 | 29.16819 | 32019 ft | 530 kts | 313° |
| 2026-04-29 19:41 | 2.60812 | 29.11352 | 32018 ft | 530 kts | 313° |
| 2026-04-29 19:42 | 2.65747 | 29.05887 | 32018 ft | 530 kts | 313° |
| 2026-04-29 19:42 | 2.70678 | 29.00426 | 32016 ft | 529 kts | 313° |
| 2026-04-29 19:43 | 2.75637 | 28.94933 | 32015 ft | 529 kts | 313° |
| 2026-04-29 19:43 | 2.80556 | 28.89482 | 31994 ft | 529 kts | 313° |
| 2026-04-29 19:44 | 2.85478 | 28.84027 | 31992 ft | 529 kts | 313° |
| 2026-04-29 19:44 | 2.90397 | 28.78576 | 31992 ft | 529 kts | 313° |
| 2026-04-29 19:45 | 2.95320 | 28.73121 | 31991 ft | 529 kts | 313° |
| 2026-04-29 19:45 | 3.00239 | 28.67673 | 31989 ft | 528 kts | 313° |
| 2026-04-29 19:46 | 3.05153 | 28.62227 | 31985 ft | 528 kts | 313° |
| 2026-04-29 19:46 | 3.10103 | 28.56740 | 31980 ft | 528 kts | 313° |
| 2026-04-29 19:47 | 3.15017 | 28.51292 | 31979 ft | 528 kts | 313° |
| 2026-04-29 19:47 | 3.19931 | 28.45848 | 31994 ft | 528 kts | 313° |
| 2026-04-29 19:48 | 3.24843 | 28.40402 | 31994 ft | 528 kts | 313° |
| 2026-04-29 19:48 | 3.29749 | 28.34961 | 31993 ft | 528 kts | 313° |
| 2026-04-29 19:49 | 3.34657 | 28.29518 | 31992 ft | 527 kts | 313° |
| 2026-04-29 19:49 | 3.39595 | 28.24039 | 31990 ft | 527 kts | 313° |
| 2026-04-29 19:50 | 3.44496 | 28.18601 | 31989 ft | 527 kts | 313° |
| 2026-04-29 19:50 | 3.49390 | 28.13170 | 31988 ft | 526 kts | 313° |
| 2026-04-29 19:51 | 3.54283 | 28.07739 | 31987 ft | 526 kts | 313° |
| 2026-04-29 19:51 | 3.59170 | 28.02314 | 31986 ft | 526 kts | 313° |
| 2026-04-29 19:52 | 3.64059 | 27.96885 | 31985 ft | 526 kts | 313° |
| 2026-04-29 19:52 | 3.68954 | 27.91449 | 31984 ft | 526 kts | 313° |
| 2026-04-29 19:53 | 3.73876 | 27.85982 | 31983 ft | 526 kts | 313° |
| 2026-04-29 19:53 | 3.78762 | 27.80554 | 31982 ft | 525 kts | 313° |
| 2026-04-29 19:54 | 3.86091 | 27.72411 | 31981 ft | 525 kts | 313° |
| 2026-04-29 19:54 | 3.90977 | 27.66980 | 31980 ft | 526 kts | 313° |
| 2026-04-29 19:55 | 3.95870 | 27.61541 | 31979 ft | 526 kts | 313° |
| 2026-04-29 19:55 | 4.00789 | 27.56072 | 31978 ft | 526 kts | 313° |
| 2026-04-29 19:56 | 4.05679 | 27.50634 | 31977 ft | 526 kts | 313° |
| 2026-04-29 19:56 | 4.10567 | 27.45197 | 31977 ft | 526 kts | 313° |
| 2026-04-29 19:57 | 4.14632 | 27.40674 | 31976 ft | 527 kts | 313° |
| 2026-04-29 19:57 | 4.20354 | 27.34307 | 31975 ft | 527 kts | 313° |
| 2026-04-29 19:58 | 4.25250 | 27.28858 | 31975 ft | 527 kts | 313° |
| 2026-04-29 19:58 | 4.30145 | 27.23409 | 31974 ft | 527 kts | 313° |
| 2026-04-29 19:59 | 4.35044 | 27.17954 | 31973 ft | 527 kts | 313° |
| 2026-04-29 19:59 | 4.39974 | 27.12464 | 31973 ft | 528 kts | 313° |
| 2026-04-29 20:00 | 4.44882 | 27.06997 | 31973 ft | 529 kts | 313° |
| 2026-04-29 20:00 | 4.49790 | 27.01528 | 31966 ft | 529 kts | 313° |
| 2026-04-29 20:01 | 4.54702 | 26.96055 | 31965 ft | 529 kts | 313° |
| 2026-04-29 20:01 | 4.59612 | 26.90582 | 31964 ft | 529 kts | 313° |
| 2026-04-29 20:02 | 4.64556 | 26.85069 | 31963 ft | 529 kts | 312° |
| 2026-04-29 20:02 | 4.68639 | 26.80517 | 31963 ft | 529 kts | 312° |
| 2026-04-29 20:03 | 4.74383 | 26.74110 | 31963 ft | 529 kts | 312° |
| 2026-04-29 20:03 | 4.79298 | 26.68627 | 31962 ft | 530 kts | 312° |
| 2026-04-29 20:04 | 4.84221 | 26.63133 | 31961 ft | 530 kts | 312° |
| 2026-04-29 20:04 | 4.89139 | 26.57643 | 31961 ft | 530 kts | 312° |
| 2026-04-29 20:05 | 4.94062 | 26.52147 | 31960 ft | 530 kts | 312° |
| 2026-04-29 20:05 | 4.99015 | 26.46615 | 31960 ft | 531 kts | 312° |
| 2026-04-29 20:06 | 5.03942 | 26.41111 | 31959 ft | 531 kts | 312° |
| 2026-04-29 20:06 | 5.08874 | 26.35605 | 31958 ft | 531 kts | 312° |
| 2026-04-29 20:07 | 5.13804 | 26.30095 | 31958 ft | 531 kts | 312° |
| 2026-04-29 20:07 | 5.18730 | 26.24585 | 31957 ft | 532 kts | 312° |
| 2026-04-29 20:08 | 5.22863 | 26.19962 | 31957 ft | 532 kts | 312° |
| 2026-04-29 20:08 | 5.28602 | 26.13542 | 31957 ft | 532 kts | 312° |
| 2026-04-29 20:09 | 5.33585 | 26.07993 | 31956 ft | 532 kts | 312° |
| 2026-04-29 20:09 | 5.38536 | 26.02476 | 31956 ft | 533 kts | 312° |
| 2026-04-29 20:10 | 5.43495 | 25.96946 | 31955 ft | 534 kts | 312° |
| 2026-04-29 20:10 | 5.48449 | 25.91420 | 31954 ft | 533 kts | 312° |
| 2026-04-29 20:11 | 5.53407 | 25.85892 | 31954 ft | 533 kts | 312° |
| 2026-04-29 20:11 | 5.58362 | 25.80366 | 31953 ft | 533 kts | 312° |
| 2026-04-29 20:12 | 5.63352 | 25.74803 | 31953 ft | 533 kts | 312° |
| 2026-04-29 20:12 | 5.68304 | 25.69273 | 31952 ft | 533 kts | 312° |
| 2026-04-29 20:13 | 5.72420 | 25.64674 | 31952 ft | 533 kts | 312° |
| 2026-04-29 20:13 | 5.78208 | 25.58206 | 31951 ft | 533 kts | 312° |
| 2026-04-29 20:14 | 5.83162 | 25.52671 | 31951 ft | 533 kts | 312° |
| 2026-04-29 20:14 | 5.88113 | 25.47144 | 31950 ft | 533 kts | 312° |
| 2026-04-29 20:15 | 5.93064 | 25.41608 | 31950 ft | 533 kts | 312° |
| 2026-04-29 20:15 | 5.98043 | 25.36036 | 31951 ft | 533 kts | 312° |
| 2026-04-29 20:16 | 6.02988 | 25.30504 | 31929 ft | 533 kts | 312° |
| 2026-04-29 20:16 | 6.07932 | 25.24970 | 31923 ft | 532 kts | 312° |
| 2026-04-29 20:17 | 6.12868 | 25.19447 | 31922 ft | 532 kts | 312° |
| 2026-04-29 20:17 | 6.17803 | 25.13919 | 31922 ft | 532 kts | 312° |
| 2026-04-29 20:18 | 6.22732 | 25.08396 | 31921 ft | 531 kts | 312° |
| 2026-04-29 20:18 | 6.26855 | 25.03775 | 31922 ft | 531 kts | 312° |
| 2026-04-29 20:19 | 6.31782 | 24.98260 | 31921 ft | 530 kts | 312° |
| 2026-04-29 20:19 | 6.36697 | 24.92754 | 31921 ft | 530 kts | 312° |
| 2026-04-29 20:20 | 6.41609 | 24.87247 | 31921 ft | 530 kts | 312° |
| 2026-04-29 20:20 | 6.46523 | 24.81735 | 31921 ft | 530 kts | 312° |
| 2026-04-29 20:21 | 6.51468 | 24.76187 | 31920 ft | 530 kts | 312° |
| 2026-04-29 20:21 | 6.56383 | 24.70671 | 31920 ft | 530 kts | 312° |
| 2026-04-29 20:22 | 6.61292 | 24.65160 | 31920 ft | 530 kts | 312° |
| 2026-04-29 20:22 | 6.66202 | 24.59645 | 31920 ft | 530 kts | 312° |
| 2026-04-29 20:23 | 6.71110 | 24.54131 | 31919 ft | 529 kts | 312° |
| 2026-04-29 20:23 | 6.76007 | 24.48628 | 31919 ft | 529 kts | 312° |
| 2026-04-29 20:24 | 6.80904 | 24.43122 | 31919 ft | 529 kts | 312° |
| 2026-04-29 20:24 | 6.85832 | 24.37580 | 31918 ft | 529 kts | 312° |
| 2026-04-29 20:25 | 6.90729 | 24.32072 | 31917 ft | 529 kts | 312° |
| 2026-04-29 20:25 | 6.95625 | 24.26561 | 31917 ft | 529 kts | 312° |
| 2026-04-29 20:26 | 7.00518 | 24.21053 | 31917 ft | 529 kts | 312° |
| 2026-04-29 20:26 | 7.05413 | 24.15541 | 31916 ft | 529 kts | 312° |
| 2026-04-29 20:27 | 7.09511 | 24.10925 | 31916 ft | 529 kts | 312° |
| 2026-04-29 20:27 | 7.15228 | 24.04482 | 31915 ft | 528 kts | 312° |
| 2026-04-29 20:28 | 7.20112 | 23.98976 | 31916 ft | 527 kts | 312° |
| 2026-04-29 20:28 | 7.24983 | 23.93483 | 31914 ft | 526 kts | 312° |
| 2026-04-29 20:29 | 7.29854 | 23.87995 | 31914 ft | 526 kts | 312° |
| 2026-04-29 20:29 | 7.34722 | 23.82499 | 31914 ft | 526 kts | 312° |
| 2026-04-29 20:30 | 7.39587 | 23.77003 | 31913 ft | 526 kts | 312° |
| 2026-04-29 20:30 | 7.44455 | 23.71504 | 31912 ft | 526 kts | 312° |
| 2026-04-29 20:31 | 7.49350 | 23.65972 | 31911 ft | 526 kts | 312° |
| 2026-04-29 20:31 | 7.54217 | 23.60475 | 31911 ft | 526 kts | 312° |
| 2026-04-29 20:32 | 7.59082 | 23.54973 | 31911 ft | 526 kts | 312° |
| 2026-04-29 20:32 | 7.63941 | 23.49475 | 31910 ft | 526 kts | 312° |
| 2026-04-29 20:33 | 7.68800 | 23.43975 | 31909 ft | 526 kts | 312° |
| 2026-04-29 20:33 | 7.73666 | 23.38476 | 31908 ft | 526 kts | 312° |
| 2026-04-29 20:34 | 7.78561 | 23.32937 | 31908 ft | 526 kts | 312° |
| 2026-04-29 20:34 | 7.83419 | 23.27436 | 31907 ft | 526 kts | 312° |
| 2026-04-29 20:35 | 7.88279 | 23.21930 | 31906 ft | 526 kts | 312° |
| 2026-04-29 20:35 | 7.93139 | 23.16420 | 31905 ft | 527 kts | 312° |
| 2026-04-29 20:36 | 7.98000 | 23.10912 | 31905 ft | 526 kts | 312° |
| 2026-04-29 20:36 | 8.02853 | 23.05411 | 31904 ft | 525 kts | 312° |
| 2026-04-29 20:37 | 8.07732 | 22.99872 | 31903 ft | 525 kts | 312° |
| 2026-04-29 20:37 | 8.12571 | 22.94375 | 31903 ft | 525 kts | 312° |
| 2026-04-29 20:38 | 8.17415 | 22.88876 | 31902 ft | 525 kts | 313° |
| 2026-04-29 20:38 | 8.22658 | 22.83767 | 31901 ft | 524 kts | 319° |
| 2026-04-29 20:39 | 8.28172 | 22.78960 | 31900 ft | 524 kts | 320° |
| 2026-04-29 20:39 | 8.33658 | 22.74134 | 31900 ft | 524 kts | 319° |
| 2026-04-29 20:40 | 8.39126 | 22.69283 | 31899 ft | 524 kts | 319° |
| 2026-04-29 20:40 | 8.44623 | 22.64393 | 31898 ft | 524 kts | 319° |
| 2026-04-29 20:41 | 8.50090 | 22.59535 | 31897 ft | 524 kts | 319° |
| 2026-04-29 20:41 | 8.55548 | 22.54676 | 31896 ft | 524 kts | 319° |
| 2026-04-29 20:42 | 8.61004 | 22.49814 | 31896 ft | 524 kts | 319° |
| 2026-04-29 20:42 | 8.66462 | 22.44948 | 31895 ft | 524 kts | 319° |
| 2026-04-29 20:43 | 8.71913 | 22.40087 | 31894 ft | 523 kts | 319° |
| 2026-04-29 20:43 | 8.77395 | 22.35195 | 31893 ft | 523 kts | 319° |
| 2026-04-29 20:44 | 8.82840 | 22.30334 | 31881 ft | 523 kts | 319° |
| 2026-04-29 20:44 | 8.88284 | 22.25472 | 31878 ft | 523 kts | 319° |
| 2026-04-29 20:45 | 8.93720 | 22.20616 | 31876 ft | 522 kts | 319° |
| 2026-04-29 20:45 | 8.99148 | 22.15764 | 31877 ft | 522 kts | 319° |
| 2026-04-29 20:46 | 9.04579 | 22.10908 | 31876 ft | 521 kts | 319° |
| 2026-04-29 20:46 | 9.10000 | 22.06058 | 31875 ft | 521 kts | 319° |
| 2026-04-29 20:47 | 9.15455 | 22.01177 | 31875 ft | 521 kts | 319° |
| 2026-04-29 20:47 | 9.20869 | 21.96329 | 31853 ft | 520 kts | 319° |
| 2026-04-29 20:48 | 9.26273 | 21.91489 | 31849 ft | 520 kts | 319° |
| 2026-04-29 20:48 | 9.31681 | 21.86644 | 31849 ft | 520 kts | 319° |
| 2026-04-29 20:49 | 9.37085 | 21.81804 | 31849 ft | 520 kts | 319° |
| 2026-04-29 20:49 | 9.42486 | 21.76958 | 31849 ft | 519 kts | 319° |
| 2026-04-29 20:50 | 9.47917 | 21.72082 | 31849 ft | 519 kts | 319° |
| 2026-04-29 20:50 | 9.53311 | 21.67239 | 31849 ft | 519 kts | 319° |
| 2026-04-29 20:51 | 9.58729 | 21.62435 | 31848 ft | 518 kts | 320° |
| 2026-04-29 20:51 | 9.64202 | 21.57698 | 31848 ft | 518 kts | 320° |
| 2026-04-29 20:52 | 9.69660 | 21.52954 | 31848 ft | 518 kts | 320° |
| 2026-04-29 20:52 | 9.75120 | 21.48199 | 31848 ft | 518 kts | 320° |
| 2026-04-29 20:53 | 9.80579 | 21.43441 | 31848 ft | 518 kts | 320° |
| 2026-04-29 20:53 | 9.86075 | 21.38661 | 31847 ft | 518 kts | 320° |
| 2026-04-29 20:54 | 9.94260 | 21.31528 | 31848 ft | 518 kts | 320° |
| 2026-04-29 20:55 | 9.99725 | 21.26761 | 31847 ft | 519 kts | 320° |
| 2026-04-29 20:55 | 10.05182 | 21.21999 | 31860 ft | 518 kts | 320° |
| 2026-04-29 20:55 | 10.07913 | 21.19613 | 32022 ft | 521 kts | 320° |
| 2026-04-29 20:56 | 10.10649 | 21.17224 | 32388 ft | 519 kts | 320° |
| 2026-04-29 20:56 | 10.13369 | 21.14848 | 32829 ft | 516 kts | 319° |
| 2026-04-29 20:56 | 10.16081 | 21.12478 | 33191 ft | 514 kts | 319° |
| 2026-04-29 20:56 | 10.18822 | 21.10082 | 33518 ft | 513 kts | 319° |
| 2026-04-29 20:57 | 10.21515 | 21.07728 | 33761 ft | 511 kts | 319° |
| 2026-04-29 20:57 | 10.26891 | 21.03026 | 33846 ft | 511 kts | 319° |
| 2026-04-29 20:58 | 10.32263 | 20.98326 | 33846 ft | 510 kts | 319° |
| 2026-04-29 20:58 | 10.37629 | 20.93629 | 33846 ft | 510 kts | 319° |
| 2026-04-29 20:59 | 10.42994 | 20.88930 | 33847 ft | 510 kts | 319° |
| 2026-04-29 20:59 | 10.48356 | 20.84232 | 33846 ft | 510 kts | 319° |
| 2026-04-29 21:00 | 10.53753 | 20.79502 | 33846 ft | 509 kts | 319° |
| 2026-04-29 21:00 | 10.59101 | 20.74811 | 33846 ft | 509 kts | 319° |
| 2026-04-29 21:01 | 10.64451 | 20.70116 | 33846 ft | 509 kts | 319° |
| 2026-04-29 21:01 | 10.69799 | 20.65422 | 33846 ft | 509 kts | 319° |
| 2026-04-29 21:02 | 10.75147 | 20.60725 | 33846 ft | 509 kts | 319° |
| 2026-04-29 21:02 | 10.80494 | 20.56026 | 33846 ft | 509 kts | 319° |
| 2026-04-29 21:03 | 10.85842 | 20.51324 | 33846 ft | 509 kts | 319° |
| 2026-04-29 21:03 | 10.91213 | 20.46600 | 33845 ft | 508 kts | 319° |
| 2026-04-29 21:04 | 10.96549 | 20.41905 | 33845 ft | 508 kts | 319° |
| 2026-04-29 21:04 | 11.01882 | 20.37208 | 33845 ft | 508 kts | 319° |
| 2026-04-29 21:05 | 11.07214 | 20.32512 | 33845 ft | 508 kts | 319° |
| 2026-04-29 21:05 | 11.12546 | 20.27812 | 33845 ft | 507 kts | 319° |
| 2026-04-29 21:06 | 11.17869 | 20.23119 | 33844 ft | 507 kts | 319° |
| 2026-04-29 21:06 | 11.23225 | 20.18393 | 33845 ft | 507 kts | 319° |
| 2026-04-29 21:07 | 11.28543 | 20.13699 | 33845 ft | 507 kts | 319° |
| 2026-04-29 21:07 | 11.32965 | 20.09794 | 33845 ft | 507 kts | 319° |
| 2026-04-29 21:08 | 11.39170 | 20.04311 | 33844 ft | 506 kts | 319° |
| 2026-04-29 21:08 | 11.44479 | 19.99624 | 33844 ft | 506 kts | 319° |
| 2026-04-29 21:09 | 11.49789 | 19.94928 | 33844 ft | 506 kts | 319° |
| 2026-04-29 21:09 | 11.55095 | 19.90229 | 33843 ft | 506 kts | 319° |
| 2026-04-29 21:10 | 11.60432 | 19.85499 | 33843 ft | 506 kts | 319° |
| 2026-04-29 21:10 | 11.65735 | 19.80801 | 33843 ft | 505 kts | 319° |
| 2026-04-29 21:11 | 11.71005 | 19.76079 | 33843 ft | 505 kts | 319° |
| 2026-04-29 21:11 | 11.76269 | 19.71347 | 33843 ft | 505 kts | 319° |
| 2026-04-29 21:12 | 11.81529 | 19.66617 | 33843 ft | 505 kts | 319° |
| 2026-04-29 21:12 | 11.86791 | 19.61881 | 33843 ft | 505 kts | 319° |
| 2026-04-29 21:13 | 11.92052 | 19.57146 | 33841 ft | 505 kts | 319° |
| 2026-04-29 21:13 | 11.96470 | 19.53180 | 33842 ft | 506 kts | 319° |
| 2026-04-29 21:14 | 12.01743 | 19.48437 | 33842 ft | 506 kts | 319° |
| 2026-04-29 21:14 | 12.07004 | 19.43699 | 33841 ft | 505 kts | 319° |
| 2026-04-29 21:15 | 12.12258 | 19.38962 | 33842 ft | 505 kts | 319° |
| 2026-04-29 21:15 | 12.17550 | 19.34190 | 33853 ft | 505 kts | 319° |
| 2026-04-29 21:16 | 12.22807 | 19.29446 | 33860 ft | 505 kts | 319° |
| 2026-04-29 21:16 | 12.28061 | 19.24702 | 33860 ft | 505 kts | 319° |
| 2026-04-29 21:17 | 12.33314 | 19.19956 | 33860 ft | 505 kts | 319° |
| 2026-04-29 21:17 | 12.38570 | 19.15215 | 33860 ft | 505 kts | 319° |
| 2026-04-29 21:18 | 12.43819 | 19.10466 | 33859 ft | 505 kts | 319° |
| 2026-04-29 21:18 | 12.49101 | 19.05682 | 33859 ft | 504 kts | 319° |
| 2026-04-29 21:19 | 12.54347 | 19.00929 | 33859 ft | 504 kts | 319° |
| 2026-04-29 21:19 | 12.59593 | 18.96172 | 33859 ft | 504 kts | 319° |
| 2026-04-29 21:20 | 12.64845 | 18.91424 | 33859 ft | 504 kts | 319° |
| 2026-04-29 21:20 | 12.70087 | 18.86669 | 33858 ft | 504 kts | 319° |
| 2026-04-29 21:21 | 12.75330 | 18.81906 | 33858 ft | 504 kts | 319° |
| 2026-04-29 21:21 | 12.80569 | 18.77144 | 33858 ft | 504 kts | 319° |
| 2026-04-29 21:22 | 12.85841 | 18.72351 | 33858 ft | 504 kts | 318° |
| 2026-04-29 21:22 | 12.91084 | 18.67586 | 33858 ft | 504 kts | 319° |
| 2026-04-29 21:23 | 12.96321 | 18.62821 | 33858 ft | 504 kts | 319° |
| 2026-04-29 21:23 | 13.01552 | 18.58056 | 33857 ft | 504 kts | 318° |
| 2026-04-29 21:24 | 13.06787 | 18.53286 | 33857 ft | 504 kts | 318° |
| 2026-04-29 21:24 | 13.12055 | 18.48486 | 33864 ft | 504 kts | 319° |
| 2026-04-29 21:25 | 13.17292 | 18.43721 | 33865 ft | 504 kts | 318° |
| 2026-04-29 21:25 | 13.22525 | 18.38954 | 33865 ft | 504 kts | 318° |
| 2026-04-29 21:26 | 13.27756 | 18.34185 | 33864 ft | 503 kts | 318° |
| 2026-04-29 21:26 | 13.32969 | 18.29419 | 33865 ft | 503 kts | 318° |
| 2026-04-29 21:27 | 13.38180 | 18.24652 | 33864 ft | 503 kts | 318° |
| 2026-04-29 21:27 | 13.43396 | 18.19881 | 33864 ft | 503 kts | 318° |
| 2026-04-29 21:28 | 13.48642 | 18.15078 | 33863 ft | 503 kts | 318° |
| 2026-04-29 21:28 | 13.53853 | 18.10306 | 33863 ft | 503 kts | 318° |
| 2026-04-29 21:29 | 13.59059 | 18.05532 | 33863 ft | 502 kts | 318° |
| 2026-04-29 21:29 | 13.64254 | 18.00764 | 33863 ft | 501 kts | 318° |
| 2026-04-29 21:30 | 13.69449 | 17.95993 | 33863 ft | 501 kts | 318° |
| 2026-04-29 21:30 | 13.74650 | 17.91228 | 33862 ft | 502 kts | 318° |
| 2026-04-29 21:31 | 13.79885 | 17.86427 | 33862 ft | 501 kts | 318° |
| 2026-04-29 21:31 | 13.85079 | 17.81655 | 33862 ft | 501 kts | 318° |
| 2026-04-29 21:32 | 13.90272 | 17.76879 | 33862 ft | 501 kts | 318° |
| 2026-04-29 21:32 | 13.95467 | 17.72099 | 33862 ft | 501 kts | 318° |
| 2026-04-29 21:33 | 14.00658 | 17.67319 | 33861 ft | 501 kts | 318° |
| 2026-04-29 21:33 | 14.05847 | 17.62538 | 33862 ft | 501 kts | 318° |
| 2026-04-29 21:34 | 14.11030 | 17.57759 | 33861 ft | 500 kts | 318° |
| 2026-04-29 21:34 | 14.16241 | 17.52951 | 33861 ft | 500 kts | 318° |
| 2026-04-29 21:35 | 14.21415 | 17.48173 | 33861 ft | 500 kts | 318° |
| 2026-04-29 21:35 | 14.26594 | 17.43389 | 33861 ft | 500 kts | 318° |
| 2026-04-29 21:36 | 14.31767 | 17.38608 | 33861 ft | 500 kts | 318° |
| 2026-04-29 21:36 | 14.36930 | 17.33831 | 33861 ft | 499 kts | 318° |
| 2026-04-29 21:37 | 14.42088 | 17.29057 | 33861 ft | 499 kts | 318° |
| 2026-04-29 21:37 | 14.47290 | 17.24247 | 33861 ft | 499 kts | 318° |
| 2026-04-29 21:38 | 14.52449 | 17.19467 | 33861 ft | 498 kts | 318° |
| 2026-04-29 21:38 | 14.57593 | 17.14692 | 33861 ft | 498 kts | 318° |
| 2026-04-29 21:39 | 14.62739 | 17.09911 | 33861 ft | 498 kts | 318° |
| 2026-04-29 21:39 | 14.67884 | 17.05133 | 33861 ft | 498 kts | 318° |
| 2026-04-29 21:40 | 14.73028 | 17.00351 | 33861 ft | 498 kts | 318° |
| 2026-04-29 21:40 | 14.78175 | 16.95563 | 33861 ft | 498 kts | 318° |
| 2026-04-29 21:41 | 14.83341 | 16.90750 | 33861 ft | 497 kts | 317° |
| 2026-04-29 21:41 | 14.88469 | 16.85969 | 33861 ft | 497 kts | 317° |
| 2026-04-29 21:42 | 14.93596 | 16.81185 | 33861 ft | 497 kts | 317° |
| 2026-04-29 21:42 | 14.98733 | 16.76409 | 33861 ft | 497 kts | 317° |
| 2026-04-29 21:43 | 15.03866 | 16.71628 | 33861 ft | 497 kts | 317° |
| 2026-04-29 21:43 | 15.08999 | 16.66838 | 33862 ft | 497 kts | 317° |
| 2026-04-29 21:44 | 15.14161 | 16.62016 | 33862 ft | 497 kts | 317° |
| 2026-04-29 21:44 | 15.19288 | 16.57223 | 33862 ft | 498 kts | 317° |
| 2026-04-29 21:45 | 15.24418 | 16.52424 | 33862 ft | 498 kts | 317° |
| 2026-04-29 21:45 | 15.29544 | 16.47625 | 33862 ft | 498 kts | 317° |
| 2026-04-29 21:46 | 15.34671 | 16.42821 | 33862 ft | 498 kts | 317° |
| 2026-04-29 21:46 | 15.39796 | 16.38017 | 33862 ft | 498 kts | 317° |
| 2026-04-29 21:47 | 15.44923 | 16.33207 | 33862 ft | 498 kts | 317° |
| 2026-04-29 21:47 | 15.50086 | 16.28359 | 33862 ft | 498 kts | 317° |
| 2026-04-29 21:48 | 15.55210 | 16.23545 | 33863 ft | 498 kts | 317° |
| 2026-04-29 21:48 | 15.60339 | 16.18724 | 33863 ft | 498 kts | 317° |
| 2026-04-29 21:49 | 15.65465 | 16.13901 | 33863 ft | 498 kts | 317° |
| 2026-04-29 21:49 | 15.70592 | 16.09074 | 33863 ft | 498 kts | 317° |
| 2026-04-29 21:50 | 15.75719 | 16.04244 | 33864 ft | 499 kts | 317° |
| 2026-04-29 21:50 | 15.80878 | 15.99379 | 33864 ft | 499 kts | 317° |
| 2026-04-29 21:51 | 15.86004 | 15.94543 | 33864 ft | 499 kts | 317° |
| 2026-04-29 21:51 | 15.93690 | 15.87284 | 33864 ft | 499 kts | 317° |
| 2026-04-29 21:52 | 15.98812 | 15.82444 | 33864 ft | 499 kts | 317° |
| 2026-04-29 21:52 | 16.03935 | 15.77598 | 33865 ft | 499 kts | 317° |
| 2026-04-29 21:53 | 16.09054 | 15.72752 | 33865 ft | 498 kts | 317° |
| 2026-04-29 21:53 | 16.14198 | 15.67879 | 33865 ft | 498 kts | 317° |
| 2026-04-29 21:54 | 16.19308 | 15.63035 | 33866 ft | 497 kts | 316° |
| 2026-04-29 21:54 | 16.24410 | 15.58195 | 33866 ft | 497 kts | 316° |
| 2026-04-29 21:55 | 16.29507 | 15.53356 | 33866 ft | 496 kts | 316° |
| 2026-04-29 21:55 | 16.34597 | 15.48521 | 33866 ft | 496 kts | 316° |
| 2026-04-29 21:56 | 16.39680 | 15.43688 | 33866 ft | 495 kts | 316° |
| 2026-04-29 21:56 | 16.44758 | 15.38856 | 33867 ft | 495 kts | 316° |
| 2026-04-29 21:57 | 16.49863 | 15.33995 | 33867 ft | 494 kts | 316° |
| 2026-04-29 21:57 | 16.54925 | 15.29172 | 33867 ft | 494 kts | 316° |
| 2026-04-29 21:58 | 16.59979 | 15.24352 | 33867 ft | 493 kts | 316° |
| 2026-04-29 21:58 | 16.65028 | 15.19534 | 33868 ft | 493 kts | 316° |
| 2026-04-29 21:59 | 16.70073 | 15.14716 | 33868 ft | 492 kts | 316° |
| 2026-04-29 21:59 | 16.75113 | 15.09908 | 33868 ft | 492 kts | 316° |
| 2026-04-29 22:00 | 16.80181 | 15.05065 | 33868 ft | 491 kts | 316° |
| 2026-04-29 22:00 | 16.85205 | 15.00250 | 33867 ft | 491 kts | 316° |
| 2026-04-29 22:01 | 16.90223 | 14.95438 | 33866 ft | 491 kts | 316° |
| 2026-04-29 22:01 | 16.95242 | 14.90625 | 33867 ft | 490 kts | 316° |
| 2026-04-29 22:02 | 17.00252 | 14.85815 | 33867 ft | 490 kts | 315° |
| 2026-04-29 22:02 | 17.05263 | 14.81004 | 33867 ft | 490 kts | 315° |
| 2026-04-29 22:03 | 17.10273 | 14.76198 | 33888 ft | 489 kts | 316° |
| 2026-04-29 22:03 | 17.15308 | 14.71367 | 33910 ft | 489 kts | 315° |
| 2026-04-29 22:04 | 17.20289 | 14.66570 | 33911 ft | 489 kts | 315° |
| 2026-04-29 22:04 | 17.25279 | 14.61759 | 33912 ft | 488 kts | 315° |
| 2026-04-29 22:05 | 17.30299 | 14.56918 | 33914 ft | 488 kts | 315° |
| 2026-04-29 22:06 | 17.36931 | 14.50518 | 33915 ft | 488 kts | 315° |
| 2026-04-29 22:06 | 17.41911 | 14.45708 | 33916 ft | 488 kts | 315° |
| 2026-04-29 22:07 | 17.46885 | 14.40897 | 33920 ft | 487 kts | 315° |
| 2026-04-29 22:07 | 17.51886 | 14.36056 | 33921 ft | 487 kts | 315° |
| 2026-04-29 22:08 | 17.56855 | 14.31243 | 33923 ft | 487 kts | 315° |
| 2026-04-29 22:08 | 17.61829 | 14.26450 | 33923 ft | 486 kts | 315° |
| 2026-04-29 22:09 | 17.66792 | 14.21649 | 33924 ft | 486 kts | 315° |
| 2026-04-29 22:09 | 17.71748 | 14.16837 | 33925 ft | 486 kts | 315° |
| 2026-04-29 22:10 | 17.76703 | 14.12020 | 33926 ft | 486 kts | 315° |
| 2026-04-29 22:10 | 17.81652 | 14.07209 | 33928 ft | 486 kts | 315° |
| 2026-04-29 22:11 | 17.86631 | 14.02365 | 33929 ft | 486 kts | 315° |
| 2026-04-29 22:11 | 17.91578 | 13.97549 | 33930 ft | 486 kts | 315° |
| 2026-04-29 22:12 | 17.96520 | 13.92731 | 33930 ft | 486 kts | 315° |
| 2026-04-29 22:12 | 18.01462 | 13.87907 | 33932 ft | 486 kts | 315° |
| 2026-04-29 22:13 | 18.06403 | 13.83080 | 33933 ft | 486 kts | 315° |
| 2026-04-29 22:13 | 18.11344 | 13.78263 | 33934 ft | 486 kts | 315° |
| 2026-04-29 22:14 | 18.16326 | 13.73409 | 33935 ft | 485 kts | 315° |
| 2026-04-29 22:14 | 18.21258 | 13.68590 | 33936 ft | 485 kts | 315° |
| 2026-04-29 22:15 | 18.26186 | 13.63769 | 33937 ft | 485 kts | 314° |
| 2026-04-29 22:15 | 18.31115 | 13.58942 | 33938 ft | 485 kts | 314° |
| 2026-04-29 22:16 | 18.36038 | 13.54116 | 33939 ft | 484 kts | 314° |
| 2026-04-29 22:16 | 18.40954 | 13.49293 | 33940 ft | 484 kts | 314° |
| 2026-04-29 22:17 | 18.45867 | 13.44469 | 33941 ft | 483 kts | 314° |
| 2026-04-29 22:17 | 18.50810 | 13.39612 | 33942 ft | 483 kts | 314° |
| 2026-04-29 22:18 | 18.55710 | 13.34792 | 33943 ft | 483 kts | 314° |
| 2026-04-29 22:18 | 18.60608 | 13.29972 | 33944 ft | 482 kts | 314° |
| 2026-04-29 22:19 | 18.65504 | 13.25149 | 33945 ft | 482 kts | 314° |
| 2026-04-29 22:19 | 18.70394 | 13.20327 | 33946 ft | 482 kts | 314° |
| 2026-04-29 22:20 | 18.75278 | 13.15507 | 33948 ft | 481 kts | 314° |
| 2026-04-29 22:20 | 18.80199 | 13.10662 | 33949 ft | 481 kts | 314° |
| 2026-04-29 22:21 | 18.85073 | 13.05845 | 33950 ft | 481 kts | 314° |
| 2026-04-29 22:21 | 18.89939 | 13.01024 | 33951 ft | 481 kts | 314° |
| 2026-04-29 22:22 | 18.94807 | 12.96199 | 33952 ft | 480 kts | 314° |
| 2026-04-29 22:22 | 18.99731 | 12.91442 | 33951 ft | 481 kts | 318° |
| 2026-04-29 22:23 | 19.05282 | 12.87471 | 33955 ft | 484 kts | 325° |
| 2026-04-29 22:23 | 19.11098 | 12.83857 | 33956 ft | 486 kts | 326° |
| 2026-04-29 22:24 | 19.16948 | 12.80198 | 33957 ft | 485 kts | 325° |
| 2026-04-29 22:24 | 19.22730 | 12.76539 | 33959 ft | 485 kts | 325° |
| 2026-04-29 22:25 | 19.28508 | 12.72867 | 33960 ft | 485 kts | 325° |
| 2026-04-29 22:25 | 19.34290 | 12.69200 | 33962 ft | 485 kts | 325° |
| 2026-04-29 22:26 | 19.40060 | 12.65531 | 33963 ft | 484 kts | 324° |
| 2026-04-29 22:26 | 19.45819 | 12.61862 | 33965 ft | 484 kts | 324° |
| 2026-04-29 22:27 | 19.51617 | 12.58163 | 33966 ft | 484 kts | 324° |
| 2026-04-29 22:27 | 19.57374 | 12.54487 | 33968 ft | 484 kts | 324° |
| 2026-04-29 22:28 | 19.63128 | 12.50809 | 33969 ft | 483 kts | 324° |
| 2026-04-29 22:28 | 19.68876 | 12.47132 | 33971 ft | 483 kts | 324° |
| 2026-04-29 22:29 | 19.74619 | 12.43455 | 33972 ft | 483 kts | 324° |
| 2026-04-29 22:29 | 19.80355 | 12.39779 | 33974 ft | 482 kts | 324° |
| 2026-04-29 22:30 | 19.86094 | 12.36098 | 33976 ft | 483 kts | 324° |
| 2026-04-29 22:30 | 19.91872 | 12.32389 | 33978 ft | 483 kts | 324° |
| 2026-04-29 22:31 | 19.97608 | 12.28704 | 33980 ft | 483 kts | 324° |
| 2026-04-29 22:31 | 20.03343 | 12.25016 | 33982 ft | 482 kts | 324° |
| 2026-04-29 22:32 | 20.09069 | 12.21331 | 33983 ft | 482 kts | 324° |
| 2026-04-29 22:32 | 20.14794 | 12.17643 | 33985 ft | 482 kts | 324° |
| 2026-04-29 22:33 | 20.20518 | 12.13952 | 33987 ft | 482 kts | 324° |
| 2026-04-29 22:33 | 20.26280 | 12.10234 | 33989 ft | 482 kts | 324° |
| 2026-04-29 22:34 | 20.32004 | 12.06542 | 33991 ft | 481 kts | 324° |
| 2026-04-29 22:34 | 20.37719 | 12.02854 | 33993 ft | 481 kts | 324° |
| 2026-04-29 22:35 | 20.43431 | 11.99155 | 33995 ft | 481 kts | 324° |
| 2026-04-29 22:35 | 20.49143 | 11.95452 | 33997 ft | 482 kts | 324° |
| 2026-04-29 22:36 | 20.54857 | 11.91745 | 33999 ft | 481 kts | 323° |
| 2026-04-29 22:36 | 20.60568 | 11.88038 | 34002 ft | 481 kts | 323° |
| 2026-04-29 22:37 | 20.66311 | 11.84308 | 34004 ft | 480 kts | 323° |
| 2026-04-29 22:37 | 20.72008 | 11.80601 | 34006 ft | 480 kts | 323° |
| 2026-04-29 22:38 | 20.77698 | 11.76895 | 34008 ft | 480 kts | 323° |
| 2026-04-29 22:38 | 20.83394 | 11.73183 | 34011 ft | 480 kts | 323° |
| 2026-04-29 22:39 | 20.89092 | 11.69482 | 34013 ft | 480 kts | 323° |
| 2026-04-29 22:39 | 20.94782 | 11.65781 | 34015 ft | 479 kts | 323° |
| 2026-04-29 22:40 | 21.00464 | 11.62067 | 34018 ft | 479 kts | 323° |
| 2026-04-29 22:40 | 21.06177 | 11.58329 | 34020 ft | 478 kts | 323° |
| 2026-04-29 22:41 | 21.11850 | 11.54616 | 34023 ft | 479 kts | 323° |
| 2026-04-29 22:41 | 21.17522 | 11.50900 | 34026 ft | 479 kts | 323° |
| 2026-04-29 22:42 | 21.23192 | 11.47184 | 34027 ft | 478 kts | 323° |
| 2026-04-29 22:42 | 21.28858 | 11.43463 | 34031 ft | 478 kts | 323° |
| 2026-04-29 22:43 | 21.34516 | 11.39743 | 34033 ft | 478 kts | 323° |
| 2026-04-29 22:43 | 21.40211 | 11.35995 | 34035 ft | 478 kts | 322° |
| 2026-04-29 22:44 | 21.45871 | 11.32278 | 34038 ft | 478 kts | 323° |
| 2026-04-29 22:44 | 21.51529 | 11.28564 | 34041 ft | 477 kts | 322° |
| 2026-04-29 22:45 | 21.57179 | 11.24846 | 34044 ft | 477 kts | 322° |
| 2026-04-29 22:45 | 21.62827 | 11.21123 | 34055 ft | 477 kts | 322° |
| 2026-04-29 22:46 | 21.68471 | 11.17398 | 34067 ft | 477 kts | 322° |
| 2026-04-29 22:46 | 21.74155 | 11.13643 | 34070 ft | 477 kts | 322° |
| 2026-04-29 22:47 | 21.79795 | 11.09913 | 34073 ft | 477 kts | 322° |
| 2026-04-29 22:47 | 21.85436 | 11.06179 | 34076 ft | 476 kts | 322° |
| 2026-04-29 22:48 | 21.91064 | 11.02450 | 34079 ft | 476 kts | 322° |
| 2026-04-29 22:48 | 21.96694 | 10.98716 | 34083 ft | 476 kts | 322° |
| 2026-04-29 22:49 | 22.02331 | 10.94974 | 34085 ft | 476 kts | 322° |
| 2026-04-29 22:49 | 22.07939 | 10.91248 | 34089 ft | 473 kts | 322° |
| 2026-04-29 22:50 | 22.13570 | 10.87503 | 34092 ft | 474 kts | 322° |
| 2026-04-29 22:50 | 22.19170 | 10.83774 | 34095 ft | 474 kts | 322° |
| 2026-04-29 22:51 | 22.24771 | 10.80043 | 34098 ft | 474 kts | 322° |
| 2026-04-29 22:51 | 22.33162 | 10.74444 | 34103 ft | 473 kts | 322° |
| 2026-04-29 22:52 | 22.38758 | 10.70712 | 34106 ft | 473 kts | 322° |
| 2026-04-29 22:52 | 22.44355 | 10.66977 | 34109 ft | 473 kts | 322° |
| 2026-04-29 22:53 | 22.49977 | 10.63211 | 34112 ft | 473 kts | 322° |
| 2026-04-29 22:53 | 22.55563 | 10.59464 | 34115 ft | 473 kts | 322° |
| 2026-04-29 22:54 | 22.61143 | 10.55719 | 34118 ft | 472 kts | 322° |
| 2026-04-29 22:54 | 22.66721 | 10.51992 | 34121 ft | 472 kts | 323° |
| 2026-04-29 22:55 | 22.72419 | 10.48447 | 34124 ft | 473 kts | 324° |
| 2026-04-29 22:55 | 22.78130 | 10.44909 | 34127 ft | 474 kts | 324° |
| 2026-04-29 22:56 | 22.83866 | 10.41331 | 34129 ft | 473 kts | 323° |
| 2026-04-29 22:56 | 22.89554 | 10.37770 | 34132 ft | 472 kts | 323° |
| 2026-04-29 22:57 | 22.95221 | 10.34218 | 34159 ft | 471 kts | 324° |
| 2026-04-29 22:57 | 23.00894 | 10.30678 | 34162 ft | 471 kts | 324° |
| 2026-04-29 22:58 | 23.06564 | 10.27126 | 34163 ft | 471 kts | 324° |
| 2026-04-29 22:58 | 23.12220 | 10.23576 | 34163 ft | 470 kts | 324° |
| 2026-04-29 22:59 | 23.17868 | 10.20025 | 34164 ft | 470 kts | 323° |
| 2026-04-29 22:59 | 23.23550 | 10.16450 | 34165 ft | 469 kts | 323° |
| 2026-04-29 23:00 | 23.28225 | 10.13505 | 34165 ft | 468 kts | 323° |
| 2026-04-29 23:00 | 23.33845 | 10.09962 | 34166 ft | 467 kts | 323° |
| 2026-04-29 23:01 | 23.39461 | 10.06417 | 34166 ft | 468 kts | 323° |
| 2026-04-29 23:01 | 23.45075 | 10.02870 | 34167 ft | 467 kts | 323° |
| 2026-04-29 23:02 | 23.50713 | 9.99305 | 34167 ft | 466 kts | 323° |
| 2026-04-29 23:02 | 23.56317 | 9.95758 | 34168 ft | 467 kts | 324° |
| 2026-04-29 23:03 | 23.61923 | 9.92206 | 34168 ft | 467 kts | 324° |
| 2026-04-29 23:03 | 23.67521 | 9.88655 | 34169 ft | 466 kts | 324° |
| 2026-04-29 23:04 | 23.73110 | 9.85107 | 34169 ft | 465 kts | 323° |
| 2026-04-29 23:04 | 23.78690 | 9.81560 | 34169 ft | 465 kts | 323° |
| 2026-04-29 23:05 | 23.84305 | 9.77988 | 34170 ft | 465 kts | 323° |
| 2026-04-29 23:05 | 23.89885 | 9.74434 | 34170 ft | 465 kts | 323° |
| 2026-04-29 23:06 | 23.95462 | 9.70879 | 34171 ft | 465 kts | 323° |
| 2026-04-29 23:06 | 24.01037 | 9.67321 | 34170 ft | 465 kts | 323° |
| 2026-04-29 23:07 | 24.06623 | 9.63766 | 34171 ft | 466 kts | 323° |
| 2026-04-29 23:07 | 24.12219 | 9.60186 | 34171 ft | 466 kts | 323° |
| 2026-04-29 23:08 | 24.17847 | 9.56578 | 34171 ft | 466 kts | 323° |
| 2026-04-29 23:08 | 24.23434 | 9.52994 | 34172 ft | 467 kts | 323° |
| 2026-04-29 23:09 | 24.29122 | 9.49549 | 34177 ft | 472 kts | 332° |
| 2026-04-29 23:09 | 24.35466 | 9.47479 | 34183 ft | 482 kts | 340° |
| 2026-04-29 23:10 | 24.42077 | 9.46017 | 34172 ft | 487 kts | 342° |
| 2026-04-29 23:10 | 24.48721 | 9.44611 | 34170 ft | 487 kts | 342° |
| 2026-04-29 23:11 | 24.55358 | 9.43161 | 34169 ft | 487 kts | 342° |
| 2026-04-29 23:11 | 24.62043 | 9.41684 | 34169 ft | 488 kts | 342° |
| 2026-04-29 23:12 | 24.68695 | 9.40215 | 34166 ft | 488 kts | 342° |
| 2026-04-29 23:12 | 24.75348 | 9.38740 | 34165 ft | 489 kts | 342° |
| 2026-04-29 23:13 | 24.82012 | 9.37258 | 34163 ft | 490 kts | 342° |
| 2026-04-29 23:13 | 24.88689 | 9.35772 | 34159 ft | 490 kts | 342° |
| 2026-04-29 23:14 | 24.95374 | 9.34281 | 34156 ft | 491 kts | 342° |
| 2026-04-29 23:14 | 25.02109 | 9.32777 | 34152 ft | 492 kts | 342° |
| 2026-04-29 23:15 | 25.08805 | 9.31280 | 34147 ft | 492 kts | 341° |
| 2026-04-29 23:15 | 25.15509 | 9.29780 | 34124 ft | 493 kts | 341° |
| 2026-04-29 23:16 | 25.22224 | 9.28276 | 34118 ft | 493 kts | 341° |
| 2026-04-29 23:16 | 25.28938 | 9.26770 | 34114 ft | 494 kts | 341° |
| 2026-04-29 23:17 | 25.35663 | 9.25260 | 34110 ft | 494 kts | 341° |
| 2026-04-29 23:17 | 25.42400 | 9.23746 | 34106 ft | 494 kts | 341° |